Time;durP1;ratioP1;P1;durP2;ratioP2;P2;SDS_P1;SDS_P2;PMS_P1;PMS_P2;Temp;Humidity;BMP_temperature;BMP_pressure;BME280_temperature;BME280_humidity;BME280_pressure;Samples;Min_cycle;Max_cycle;Signal;HPM_P1;HPM_P2
2021/12/16 00:09:00;;;;;;;25.17;14.63;;;;;;;7.49;100.00;101858.28;5120964;57;1143589;-82
2021/12/16 00:35:20;;;;;;;27.37;17.00;;;;;;;7.49;100.00;101855.66;5205440;56;1141146;-78
2021/12/16 00:40:26;;;;;;;25.40;17.30;;;;;;;7.49;100.00;101858.28;5204988;56;1141287;-81
2021/12/16 00:45:42;;;;;;;26.53;16.90;;;;;;;7.49;100.00;101866.64;5204946;56;1141121;-82
2021/12/16 00:55:54;;;;;;;28.00;15.73;;;;;;;7.47;100.00;101875.09;5205114;56;1141129;-79
2021/12/16 01:06:23;;;;;;;27.50;16.40;;;;;;;7.45;100.00;101884.83;5204710;56;1141223;-81
2021/12/16 01:54:55;;;;;;;24.67;15.20;;;;;;;7.24;100.00;101876.91;5120732;57;1143500;-81
2021/12/16 02:00:05;;;;;;;26.43;15.20;;;;;;;7.23;100.00;101881.78;5119999;56;1143530;-79
2021/12/16 02:05:34;;;;;;;26.00;15.30;;;;;;;7.24;100.00;101879.55;5123583;57;1143155;-81
2021/12/16 02:10:41;;;;;;;26.13;15.93;;;;;;;7.24;100.00;101869.48;5129297;57;1143255;-80
2021/12/16 02:32:08;;;;;;;31.42;16.52;;;;;;;7.23;100.00;101868.63;5218629;56;1141344;-80
2021/12/16 02:37:16;;;;;;;29.00;15.67;;;;;;;7.24;100.00;101866.39;5216369;56;1141625;-80
2021/12/16 02:42:21;;;;;;;25.60;13.30;;;;;;;7.23;100.00;101874.34;5215070;56;1139065;-80
2021/12/16 02:52:52;;;;;;;24.13;14.70;;;;;;;7.23;100.00;101867.77;5189641;56;1143459;-79
2021/12/16 02:58:00;;;;;;;37.23;16.73;;;;;;;7.20;100.00;101853.41;5154790;56;1143493;-79
2021/12/16 03:03:07;;;;;;;28.73;15.07;;;;;;;7.19;100.00;101852.56;5021015;57;1143304;-81
2021/12/16 03:08:13;;;;;;;29.23;16.53;;;;;;;7.18;100.00;101862.69;5045627;58;1143224;-80
2021/12/16 03:13:31;;;;;;;28.33;14.93;;;;;;;7.20;100.00;101864.80;5097654;57;1143469;-79
2021/12/16 03:18:47;;;;;;;34.50;18.30;;;;;;;7.21;100.00;101868.28;5074185;57;1143117;-80
2021/12/16 03:40:09;;;;;;;34.55;14.85;;;;;;;7.15;100.00;101870.73;5037974;58;1143418;-81
2021/12/16 03:51:00;;;;;;;;;;;;;;;7.10;100.00;101865.26;4950798;58;1141160;-79
2021/12/16 03:56:07;;;;;;;19.27;12.43;;;;;;;7.07;100.00;101866.23;5037244;58;974450;-80
2021/12/16 04:01:19;;;;;;;22.27;13.27;;;;;;;7.08;100.00;101869.27;5076527;57;1139276;-79
2021/12/16 04:06:28;;;;;;;18.40;11.87;;;;;;;7.10;100.00;101863.94;5084602;57;1141177;-79
2021/12/16 04:11:41;;;;;;;17.10;10.80;;;;;;;7.08;100.00;101860.05;5091640;58;1141225;-79
2021/12/16 04:16:52;;;;;;;19.40;10.33;;;;;;;7.14;100.00;101860.27;5118691;57;1141141;-80
2021/12/16 04:22:16;;;;;;;20.07;10.73;;;;;;;7.14;100.00;101857.18;5173618;57;1141269;-80
2021/12/16 04:27:22;;;;;;;12.50;8.90;;;;;;;7.18;100.00;101860.05;5176800;57;1141105;-80
2021/12/16 04:32:29;;;;;;;14.30;9.57;;;;;;;7.21;100.00;101858.62;5175274;57;1139058;-80
2021/12/16 04:37:36;;;;;;;15.20;9.00;;;;;;;7.23;100.00;101854.61;5175057;57;1136984;-80
2021/12/16 04:42:44;;;;;;;13.80;9.85;;;;;;;7.24;100.00;101857.17;5174164;57;1136954;-80
2021/12/16 04:47:51;;;;;;;13.67;9.97;;;;;;;7.26;100.00;101862.38;5089667;57;1141190;-80
2021/12/16 04:52:58;;;;;;;11.70;7.83;;;;;;;7.28;100.00;101861.86;5177051;57;1141017;-80
2021/12/16 04:58:05;;;;;;;14.33;9.00;;;;;;;7.29;100.00;101858.30;5117705;57;1141171;-80
2021/12/16 05:03:11;;;;;;;22.47;12.10;;;;;;;7.29;100.00;101851.73;5176816;57;1141395;-80
2021/12/16 05:08:19;;;;;;;18.07;9.67;;;;;;;7.30;100.00;101858.70;5105862;57;1143499;-80
2021/12/16 05:13:28;;;;;;;12.67;8.50;;;;;;;7.31;100.00;101857.33;5207138;56;1141094;-80
2021/12/16 05:18:37;;;;;;;18.00;9.87;;;;;;;7.34;100.00;101868.16;5150923;56;1141084;-81
2021/12/16 05:29:06;;;;;;;12.47;7.77;;;;;;;7.37;100.00;101874.16;4906088;59;1140521;-79
2021/12/16 05:34:12;;;;;;;13.30;8.83;;;;;;;7.37;100.00;101874.16;4905817;59;1141349;-79
2021/12/16 05:39:20;;;;;;;14.00;9.10;;;;;;;7.37;100.00;101872.84;4905820;59;1141396;-80
2021/12/16 05:44:28;;;;;;;18.90;8.53;;;;;;;7.38;100.00;101858.76;4905627;59;1141244;-80
2021/12/16 05:49:34;;;;;;;10.75;8.05;;;;;;;7.38;100.00;101867.11;4905807;59;1141316;-79
2021/12/16 05:54:40;;;;;;;11.80;7.30;;;;;;;7.39;100.00;101875.41;4905917;59;1141345;-81
2021/12/16 05:59:56;;;;;;;14.73;7.60;;;;;;;7.39;100.00;101868.83;4930419;59;1141354;-80
2021/12/16 06:05:03;;;;;;;12.40;8.07;;;;;;;7.39;100.00;101872.31;5155235;56;1141221;-80
2021/12/16 06:10:34;;;;;;;12.83;9.30;;;;;;;7.41;100.00;101883.64;5182937;56;1141165;-80
2021/12/16 06:15:35;;;;;;;13.63;9.53;;;;;;;7.39;100.00;101890.73;5210071;56;1141060;-80
2021/12/16 06:31:15;;;;;;;14.25;8.40;;;;;;;7.41;100.00;101901.20;5131866;57;1141168;-80
2021/12/16 06:36:21;;;;;;;16.53;9.37;;;;;;;7.40;100.00;101897.72;5131716;57;1141106;-80
2021/12/16 06:41:34;;;;;;;18.70;10.97;;;;;;;7.39;100.00;101899.95;5131730;57;1141172;-79
2021/12/16 06:46:41;;;;;;;19.30;11.10;;;;;;;7.41;100.00;101906.02;5131575;57;1141172;-80
2021/12/16 06:51:57;;;;;;;14.00;8.80;;;;;;;7.40;100.00;101900.34;5131652;57;1141190;-80
2021/12/16 07:02:39;;;;;;;16.17;10.70;;;;;;;7.38;100.00;101911.86;5131710;57;1139377;-80
2021/12/16 07:07:26;;;;;;;15.90;10.30;;;;;;;7.40;100.00;101923.18;5128065;57;1141092;-80
2021/12/16 07:12:37;;;;;;;17.67;10.43;;;;;;;7.43;100.00;101931.41;5131726;57;1141203;-80
2021/12/16 07:17:43;;;;;;;17.87;10.87;;;;;;;7.42;100.00;101923.98;5173976;56;1141626;-81
2021/12/16 07:22:49;;;;;;;25.27;15.97;;;;;;;7.45;100.00;101932.20;5217918;56;1141080;-81
2021/12/16 07:27:55;;;;;;;22.30;13.67;;;;;;;7.44;100.00;101931.35;5217366;56;1141308;-81
2021/12/16 07:33:01;;;;;;;20.75;14.13;;;;;;;7.46;100.00;101957.61;5217243;56;1141125;-80
2021/12/16 07:38:07;;;;;;;23.40;14.63;;;;;;;7.47;100.00;101968.08;5217319;56;1141229;-80
2021/12/16 07:43:26;;;;;;;19.73;11.40;;;;;;;7.48;100.00;101979.02;5217334;56;1139140;-80
2021/12/16 07:48:31;;;;;;;22.20;13.63;;;;;;;7.48;100.00;101976.84;5151907;57;1143401;-80
2021/12/16 07:53:38;;;;;;;20.23;12.13;;;;;;;7.48;100.00;101982.10;5068132;58;1143221;-80
2021/12/16 07:58:43;;;;;;;28.40;15.53;;;;;;;7.48;100.00;101978.16;5151757;57;1143136;-80
2021/12/16 08:03:51;;;;;;;22.90;12.23;;;;;;;7.48;100.00;101986.05;5067635;58;1143327;-81
2021/12/16 08:09:01;;;;;;;18.43;11.27;;;;;;;7.51;100.00;101989.39;5151384;57;1143315;-81
2021/12/16 08:14:08;;;;;;;24.93;13.03;;;;;;;7.54;100.00;101989.73;5048294;58;1143342;-80
2021/12/16 08:19:14;;;;;;;21.60;12.90;;;;;;;7.53;100.00;102008.61;5065177;57;1143202;-81
2021/12/16 08:24:20;;;;;;;24.43;13.23;;;;;;;7.55;100.00;102010.73;5048628;58;1143745;-81
2021/12/16 08:29:26;;;;;;;20.17;10.90;;;;;;;7.57;100.00;102010.20;4968122;58;1143548;-80
2021/12/16 08:34:34;;;;;;;21.07;12.63;;;;;;;7.58;100.00;102008.44;5019559;59;1143733;-80
2021/12/16 08:39:40;;;;;;;20.68;12.40;;;;;;;7.57;100.00;102020.73;5131176;57;1143354;-80
2021/12/16 08:44:46;;;;;;;14.93;8.47;;;;;;;7.57;100.00;102021.20;5131516;57;1143172;-80
2021/12/16 08:49:52;;;;;;;18.03;9.67;;;;;;;7.58;100.00;102024.23;5131201;57;1141098;-81
2021/12/16 08:54:59;;;;;;;11.53;7.87;;;;;;;7.60;100.00;102023.72;5131416;57;1141147;-81
2021/12/16 09:00:09;;;;;;;16.83;10.70;;;;;;;7.59;100.00;102031.21;5131338;57;1141462;-81
2021/12/16 09:05:15;;;;;;;11.90;7.13;;;;;;;7.58;100.00;102039.57;5131290;57;1143534;-80
2021/12/16 09:10:27;;;;;;;10.73;5.23;;;;;;;7.58;100.00;102043.52;5131272;57;1141322;-80
2021/12/16 09:15:49;;;;;;;5.47;4.43;;;;;;;7.58;100.00;102032.12;5136949;56;1141179;-81
2021/12/16 09:21:01;;;;;;;6.90;4.93;;;;;;;7.61;100.00;102021.02;5217300;56;1139219;-80
2021/12/16 09:26:07;;;;;;;6.87;4.23;;;;;;;7.64;100.00;102016.06;5217020;56;1139024;-81
2021/12/16 09:31:17;;;;;;;12.13;5.90;;;;;;;7.67;100.00;102007.58;5207975;56;1139376;-80
2021/12/16 09:36:27;;;;;;;4.83;3.73;;;;;;;7.73;100.00;102027.09;5205878;56;1141381;-81
2021/12/16 09:41:32;;;;;;;7.97;5.30;;;;;;;7.74;100.00;102015.63;5206270;56;1139028;-80
2021/12/16 09:46:39;;;;;;;5.70;4.33;;;;;;;7.73;100.00;102009.97;5205573;56;1139255;-79
2021/12/16 09:51:47;;;;;;;5.30;3.50;;;;;;;7.74;100.00;102024.00;5205546;56;1139128;-80
2021/12/16 09:56:56;;;;;;;19.67;10.05;;;;;;;7.74;100.00;102029.27;5206428;56;1138599;-81
2021/12/16 10:02:07;;;;;;;13.80;6.57;;;;;;;7.73;100.00;102040.25;5206733;56;1143187;-81
2021/12/16 10:07:24;;;;;;;10.10;5.20;;;;;;;7.75;100.00;102048.95;5206848;56;1139121;-81
2021/12/16 10:12:35;;;;;;;5.23;4.13;;;;;;;7.73;100.00;102049.47;5206886;56;1139094;-81
2021/12/16 10:17:42;;;;;;;10.67;6.50;;;;;;;7.74;100.00;102039.80;5165509;56;1137105;-79
2021/12/16 10:22:50;;;;;;;12.47;7.70;;;;;;;7.74;100.00;102049.88;5121183;57;1139038;-79
2021/12/16 10:28:23;;;;;;;8.27;4.90;;;;;;;7.74;100.00;102045.06;5120912;57;1138825;-80
2021/12/16 10:33:37;;;;;;;5.15;3.75;;;;;;;7.75;100.00;102052.05;5120840;57;1136884;-80
2021/12/16 10:38:49;;;;;;;5.72;2.92;;;;;;;7.75;100.00;102052.91;5148136;56;1137053;-80
2021/12/16 10:44:08;;;;;;;5.35;3.47;;;;;;;7.80;100.00;102024.17;5149088;56;1135205;-80
2021/12/16 10:49:19;;;;;;;4.50;2.97;;;;;;;7.85;100.00;102024.39;5148802;56;1138621;-81
2021/12/16 10:54:38;;;;;;;5.40;3.00;;;;;;;7.88;100.00;102019.00;5147499;56;1139039;-80
2021/12/16 10:59:54;;;;;;;2.30;2.07;;;;;;;7.90;100.00;102007.94;5147326;56;1138965;-80
2021/12/16 11:05:24;;;;;;;4.33;3.23;;;;;;;8.01;100.00;102002.20;5120187;56;1139061;-80
2021/12/16 11:10:37;;;;;;;5.77;3.53;;;;;;;8.12;100.00;101999.95;5120940;57;1139112;-80
2021/12/16 11:15:48;;;;;;;6.33;4.03;;;;;;;8.22;100.00;102003.05;5128004;56;1139122;-80
2021/12/16 11:21:07;;;;;;;6.87;3.00;;;;;;;8.22;100.00;102017.09;5204950;56;1139189;-79
2021/12/16 11:26:17;;;;;;;6.70;2.93;;;;;;;8.15;100.00;102020.05;5181684;56;1138974;-80
2021/12/16 11:31:27;;;;;;;2.92;2.05;;;;;;;8.07;100.00;102023.03;5206278;56;1139068;-79
2021/12/16 11:36:40;;;;;;;5.70;3.10;;;;;;;8.02;100.00;102019.27;5206013;56;1139026;-81
2021/12/16 11:41:53;;;;;;;2.47;1.67;;;;;;;8.06;100.00;102036.66;5207239;56;1139174;-80
2021/12/16 11:47:19;;;;;;;2.75;1.77;;;;;;;8.35;100.00;102038.52;5148583;57;1139023;-81
2021/12/16 11:52:35;;;;;;;5.20;2.77;;;;;;;8.54;100.00;102038.57;5153954;57;1139047;-81
2021/12/16 11:57:50;;;;;;;6.67;3.37;;;;;;;8.32;100.00;102028.96;5160421;57;1136983;-81
2021/12/16 12:03:02;;;;;;;9.27;4.37;;;;;;;8.31;100.00;102022.41;5160157;57;1136859;-80
2021/12/16 12:08:22;;;;;;;5.43;3.17;;;;;;;8.39;100.00;102026.47;5154901;57;1137063;-80
2021/12/16 12:13:38;;;;;;;4.63;2.77;;;;;;;9.02;100.00;102032.80;5013310;58;1137010;-80
2021/12/16 12:19:00;;;;;;;1.73;1.53;;;;;;;9.13;100.00;102029.21;5095776;57;1137173;-80
2021/12/16 12:24:18;;;;;;;4.30;2.70;;;;;;;9.13;100.00;102029.21;5063572;57;1137353;-80
2021/12/16 12:29:37;;;;;;;11.37;5.57;;;;;;;8.91;100.00;102023.22;5151973;57;1139037;-80
2021/12/16 12:34:47;;;;;;;13.27;4.80;;;;;;;8.70;100.00;102016.70;5054640;58;1141135;-81
2021/12/16 12:40:01;;;;;;;15.77;6.37;;;;;;;8.68;100.00;101997.45;5168246;56;1141128;-82
2021/12/16 12:45:10;;;;;;;11.37;4.50;;;;;;;8.83;100.00;102005.59;5175013;56;1141127;-81
2021/12/16 12:50:35;;;;;;;11.73;4.47;;;;;;;8.66;100.00;102012.48;5205559;56;1141328;-79
2021/12/16 12:55:41;;;;;;;18.03;5.77;;;;;;;8.98;100.00;102003.08;5194117;56;1141333;-80
2021/12/16 13:00:54;;;;;;;14.67;5.63;;;;;;;9.67;100.00;102004.98;5034248;58;1141040;-80
2021/12/16 13:06:13;;;;;;;7.83;3.50;;;;;;;10.22;100.00;101996.45;5109963;57;1141101;-79
2021/12/16 13:11:27;;;;;;;7.03;2.90;;;;;;;10.74;100.00;101994.97;5062269;58;1141272;-82
2021/12/16 13:16:55;;;;;;;8.33;3.30;;;;;;;10.71;96.34;102001.74;5051388;57;1141197;-80
2021/12/16 13:32:29;;;;;;;7.17;3.40;;;;;;;10.79;94.75;102036.13;5143853;56;1141363;-78
2021/12/16 13:37:39;;;;;;;7.20;2.93;;;;;;;10.05;95.39;102032.98;5119299;57;1138960;-78
2021/12/16 13:43:02;;;;;;;8.10;4.07;;;;;;;9.48;97.03;102047.30;5137270;56;1138979;-80
2021/12/16 13:48:54;;;;;;;7.50;3.20;;;;;;;8.99;98.77;102048.80;5191131;56;1134863;-78
2021/12/16 14:00:14;;;;;;;12.70;4.70;;;;;;;8.22;100.00;102079.48;5120333;57;1136879;-76
2021/12/16 14:10:18;;;;;;;19.97;6.47;;;;;;;7.92;100.00;102098.30;5140582;57;1141220;-79
2021/12/16 14:26:40;;;;;;;8.73;4.70;;;;;;;7.54;100.00;102101.16;5064198;58;1143144;-79
2021/12/16 14:32:23;;;;;;;15.03;5.83;;;;;;;7.41;100.00;102092.89;5113588;57;1138958;-80
2021/12/16 14:37:19;;;;;;;9.83;3.67;;;;;;;7.28;100.00;102095.61;5213454;56;1141227;-77
2021/12/16 14:42:48;;;;;;;10.83;3.90;;;;;;;7.20;100.00;102091.54;5018345;58;1138998;-80
2021/12/16 14:48:10;;;;;;;18.07;7.10;;;;;;;7.07;100.00;102085.89;5018709;58;1141094;-82
2021/12/16 14:53:20;;;;;;;56.03;25.63;;;;;;;7.00;100.00;102096.27;5089674;57;1139022;-80
2021/12/16 14:58:26;;;;;;;19.17;8.83;;;;;;;6.94;100.00;102088.59;5061322;58;1141017;-77
2021/12/16 15:03:38;;;;;;;19.03;7.70;;;;;;;6.85;100.00;102100.33;5109480;57;1138992;-79
2021/12/16 15:09:08;;;;;;;17.77;6.07;;;;;;;6.81;100.00;102097.86;5151722;57;1138997;-76
2021/12/16 15:14:20;;;;;;;12.37;3.93;;;;;;;6.70;100.00;102096.48;5119464;57;1139019;-79
2021/12/16 15:42:45;;;;;;;15.10;4.13;;;;;;;6.31;100.00;102138.16;5102054;57;1141016;-79
2021/12/16 15:46:06;;;;;;;108.97;61.20;;;;;;;6.23;100.00;102141.52;5102441;57;1141053;-79
2021/12/16 15:51:13;;;;;;;28.67;14.33;;;;;;;6.16;100.00;102146.55;5101941;57;1145694;-79
2021/12/16 15:56:29;;;;;;;15.50;4.87;;;;;;;6.14;100.00;102144.42;5128079;57;1143158;-80
2021/12/16 16:01:47;;;;;;;10.27;3.63;;;;;;;6.07;100.00;102152.13;5102590;57;1141095;-79
2021/12/16 16:07:06;;;;;;;12.13;5.77;;;;;;;6.03;100.00;102151.81;5095136;57;1141221;-79
2021/12/16 16:12:22;;;;;;;13.40;3.47;;;;;;;5.97;100.00;102148.91;5097955;57;1141088;-79
2021/12/16 16:17:26;;;;;;;30.57;13.15;;;;;;;5.96;100.00;102147.65;5101151;57;1141029;-76
2021/12/16 16:22:33;;;;;;;17.53;5.60;;;;;;;6.01;100.00;102137.86;5083008;57;1143110;-75
2021/12/16 16:27:39;;;;;;;14.23;5.03;;;;;;;5.99;100.00;102139.22;5084830;57;1141069;-78
2021/12/16 16:33:10;;;;;;;26.60;6.30;;;;;;;5.98;100.00;102144.52;5016251;58;1141238;-77
2021/12/16 16:38:24;;;;;;;22.17;7.80;;;;;;;5.98;100.00;102148.47;5013133;58;1141097;-77
2021/12/16 16:43:37;;;;;;;32.20;10.67;;;;;;;5.97;100.00;102148.91;5045350;58;1141013;-78
2021/12/16 16:49:02;;;;;;;32.70;10.25;;;;;;;5.97;100.00;102162.50;5078384;57;1141118;-78
2021/12/16 16:54:05;;;;;;;38.50;12.03;;;;;;;5.94;100.00;102167.42;5055384;58;1141027;-76
2021/12/16 16:59:15;;;;;;;31.63;9.90;;;;;;;5.95;100.00;102176.16;5050559;57;1141500;-78
2021/12/16 17:04:22;;;;;;;20.13;6.53;;;;;;;5.97;100.00;102190.08;5131641;57;1139144;-77
2021/12/16 17:09:40;;;;;;;23.77;7.00;;;;;;;6.01;100.00;102194.33;5030826;58;1139002;-77
2021/12/16 17:14:55;;;;;;;27.30;6.97;;;;;;;6.02;100.00;102202.62;4970298;58;1139006;-76
2021/12/16 17:20:05;;;;;;;17.67;6.13;;;;;;;6.06;100.00;102203.39;5043629;58;1139520;-76
2021/12/16 17:25:11;;;;;;;;;;;;;;;6.06;100.00;102196.37;5049795;58;1139046;-76
2021/12/16 17:30:22;;;;;;;26.10;6.30;;;;;;;6.11;100.00;102196.23;4993131;58;972179;-76
2021/12/16 17:35:38;;;;;;;17.57;5.47;;;;;;;6.12;100.00;102191.35;5080393;57;1139026;-74
2021/12/16 17:40:48;;;;;;;19.98;6.87;;;;;;;6.13;100.00;102193.07;5045924;58;1141190;-74
2021/12/16 17:46:01;;;;;;;29.20;9.67;;;;;;;6.13;100.00;102210.14;4985556;58;1141199;-74
2021/12/16 17:51:11;;;;;;;33.13;10.88;;;;;;;6.09;100.00;102208.09;5086089;57;1141011;-74
2021/12/16 17:56:17;;;;;;;24.70;8.10;;;;;;;6.09;100.00;102212.03;5104367;57;1143076;-77
2021/12/16 18:01:27;;;;;;;20.40;5.73;;;;;;;6.11;100.00;102219.87;5026941;58;1141105;-76
2021/12/16 18:06:54;;;;;;;22.80;6.47;;;;;;;6.08;100.00;102218.20;5131391;57;1141179;-76
2021/12/16 18:12:05;;;;;;;25.67;6.33;;;;;;;6.06;100.00;102221.32;5077490;57;1140994;-77
2021/12/16 18:17:17;;;;;;;27.80;6.57;;;;;;;6.03;100.00;102217.92;5096817;57;1141102;-75
2021/12/16 18:22:28;;;;;;;40.60;13.80;;;;;;;6.03;100.00;102220.55;4996637;58;1141108;-76
2021/12/16 18:27:44;;;;;;;21.67;7.17;;;;;;;6.03;100.00;102216.61;5094403;57;1143247;-76
2021/12/16 18:32:54;;;;;;;30.53;7.23;;;;;;;6.02;100.00;102219.69;5079089;57;1141017;-74
2021/12/16 18:38:12;;;;;;;27.00;7.77;;;;;;;5.98;100.00;102216.30;5096203;57;1141067;-76
2021/12/16 18:43:21;;;;;;;21.17;8.17;;;;;;;5.98;100.00;102220.23;4992662;58;1141127;-76
2021/12/16 18:48:36;;;;;;;46.90;14.37;;;;;;;5.99;100.00;102235.53;5048938;58;1141104;-75
2021/12/16 18:59:06;;;;;;;21.83;6.93;;;;;;;5.99;100.00;102249.53;4968580;59;1138998;-75
2021/12/16 19:04:12;;;;;;;21.63;5.63;;;;;;;5.98;100.00;102238.62;5048959;57;1138964;-75
2021/12/16 19:09:21;;;;;;;25.50;5.57;;;;;;;5.98;100.00;102247.81;5131797;57;1139251;-74
2021/12/16 19:14:32;;;;;;;31.27;6.63;;;;;;;5.95;100.00;102241.81;5037509;58;1139016;-75
2021/12/16 19:19:40;;;;;;;29.10;8.60;;;;;;;5.94;100.00;102242.72;5042349;58;1139127;-76
2021/12/16 19:24:46;;;;;;;34.70;8.37;;;;;;;5.94;100.00;102260.66;5131804;57;1139034;-75
2021/12/16 19:29:56;;;;;;;26.10;8.40;;;;;;;5.92;100.00;102258.52;5048817;58;1139030;-77
2021/12/16 19:35:05;;;;;;;30.43;8.23;;;;;;;5.98;100.00;102269.27;5048513;58;1139059;-77
2021/12/16 19:40:16;;;;;;;37.33;10.53;;;;;;;5.97;100.00;102256.59;5048402;58;1139102;-76
2021/12/16 19:45:26;;;;;;;30.23;6.43;;;;;;;5.86;100.00;102269.16;5048136;58;1141232;-76
2021/12/16 19:50:35;;;;;;;33.00;6.83;;;;;;;5.86;100.00;102269.16;5048691;58;1139091;-76
2021/12/16 19:55:41;;;;;;;19.40;7.90;;;;;;;5.84;100.00;102268.80;5047917;58;1139012;-77
2021/12/16 20:00:54;;;;;;;19.57;5.60;;;;;;;5.81;100.00;102268.43;4968596;59;1137027;-76
2021/12/16 20:06:05;;;;;;;28.07;5.50;;;;;;;5.76;100.00;102280.86;5045237;58;1141058;-76
2021/12/16 20:11:21;;;;;;;30.33;7.33;;;;;;;5.73;100.00;102279.62;4968610;59;1141078;-77
2021/12/16 20:16:32;;;;;;;22.30;6.27;;;;;;;5.70;100.00;102273.14;5067684;57;1140413;-77
2021/12/16 20:21:48;;;;;;;38.67;10.43;;;;;;;5.70;100.00;102273.14;5058938;58;1141150;-76
2021/12/16 20:27:04;;;;;;;29.80;9.83;;;;;;;5.66;100.00;102280.70;5131791;57;1143260;-76
2021/12/16 20:32:14;;;;;;;27.10;6.73;;;;;;;5.64;100.00;102289.09;5102230;57;1141048;-76
2021/12/16 20:37:22;;;;;;;43.52;9.25;;;;;;;5.60;100.00;102287.00;5126779;57;1141134;-77
2021/12/16 20:42:35;;;;;;;23.00;6.03;;;;;;;5.59;100.00;102289.22;5113906;57;1141061;-78
2021/12/16 20:47:43;;;;;;;36.47;7.50;;;;;;;5.56;100.00;102281.42;5081693;57;1141045;-76
2021/12/16 20:52:49;;;;;;;31.23;8.03;;;;;;;5.51;100.00;102281.14;5099529;57;1141044;-75
2021/12/16 20:58:01;;;;;;;33.93;7.27;;;;;;;5.52;100.00;102303.85;5104811;57;1141068;-77
2021/12/16 21:03:08;;;;;;;27.97;6.90;;;;;;;5.51;100.00;102296.43;5103054;57;1141033;-78
2021/12/16 21:08:17;;;;;;;36.70;8.07;;;;;;;5.48;100.00;102290.44;5113534;57;1140997;-77
2021/12/16 21:13:24;;;;;;;31.07;6.33;;;;;;;5.47;100.00;102290.88;5119925;57;1141031;-79
2021/12/16 21:18:30;;;;;;;27.40;5.73;;;;;;;5.50;100.00;102300.44;5093496;57;1141101;-76
2021/12/16 21:23:36;;;;;;;20.90;4.57;;;;;;;5.50;100.00;102312.25;5042948;58;1141190;-78
2021/12/16 21:28:42;;;;;;;27.97;5.60;;;;;;;5.49;100.00;102306.14;5037301;58;1141230;-76
2021/12/16 21:34:06;;;;;;;21.77;5.60;;;;;;;5.44;100.00;102301.91;5037476;58;1141173;-77
2021/12/16 21:39:02;;;;;;;25.70;5.97;;;;;;;5.43;100.00;102293.17;5046962;57;1141154;-77
2021/12/16 21:44:08;;;;;;;19.90;5.40;;;;;;;5.43;100.00;102289.69;5065626;57;1141139;-77
2021/12/16 21:49:14;;;;;;;23.57;5.07;;;;;;;5.41;100.00;102282.31;5048360;58;1141371;-79
2021/12/16 21:54:21;;;;;;;28.07;5.07;;;;;;;5.41;100.00;102274.44;5048560;58;1141346;-74
2021/12/16 21:59:30;;;;;;;28.43;4.07;;;;;;;5.35;100.00;102265.45;5052926;57;1141604;-77
2021/12/16 22:04:39;;;;;;;21.00;5.63;;;;;;;5.32;100.00;102266.84;5048853;58;1141319;-77
2021/12/16 22:09:43;;;;;;;26.00;6.60;;;;;;;5.26;100.00;102259.53;5065507;57;1139178;-78
2021/12/16 22:14:50;;;;;;;17.37;4.20;;;;;;;5.21;100.00;102269.28;5086710;57;1139548;-78
2021/12/16 22:19:56;;;;;;;16.90;3.90;;;;;;;5.18;100.00;102268.08;5087661;57;1139258;-77
2021/12/16 22:25:01;;;;;;;25.73;6.10;;;;;;;5.09;100.00;102269.63;5090515;57;1139164;-78
2021/12/16 22:30:08;;;;;;;28.37;5.03;;;;;;;4.99;100.00;102264.22;5086688;57;1139047;-79
2021/12/16 22:35:19;;;;;;;22.07;4.00;;;;;;;4.91;100.00;102274.90;5043731;58;1139070;-78
2021/12/16 22:40:30;;;;;;;26.27;3.97;;;;;;;4.84;100.00;102276.42;5045942;58;1136847;-75
2021/12/16 22:45:39;;;;;;;22.53;4.50;;;;;;;4.74;100.00;102253.50;5216419;56;1139209;-78
2021/12/16 22:50:46;;;;;;;17.42;4.08;;;;;;;4.67;100.00;102253.27;5217647;56;1138849;-78
2021/12/16 22:55:54;;;;;;;18.33;4.57;;;;;;;4.57;100.00;102257.89;5221126;56;21190;-79
2021/12/16 23:01:08;;;;;;;20.00;4.33;;;;;;;4.49;100.00;102257.64;5217605;56;1134830;-76
2021/12/16 23:06:13;;;;;;;16.27;4.07;;;;;;;4.42;100.00;102263.50;5216746;56;1139106;-78
2021/12/16 23:11:21;;;;;;;17.63;4.00;;;;;;;4.42;100.00;102279.67;5217327;56;1138957;-76
2021/12/16 23:27:06;;;;;;;14.83;3.57;;;;;;;4.55;100.00;102295.50;5051074;57;1141172;-78
2021/12/16 23:32:12;;;;;;;11.18;3.17;;;;;;;4.61;100.00;102295.33;5131700;57;1140939;-76
2021/12/16 23:37:18;;;;;;;26.33;5.90;;;;;;;4.67;100.00;102305.67;5131549;57;1141052;-77
2021/12/16 23:57:46;;;;;;;18.03;4.40;;;;;;;4.83;100.00;102308.78;5131623;57;1141213;-77
